Map

Track Data

SID SEASON NUMBER BASIN SUBBASIN NAME ISO_TIME NATURE LAT LON WMO_WIND WMO_PRES WMO_AGENCY TRACK_TYPE DIST2LAND LANDFALL IFLAG USA_AGENCY USA_ATCF_ID USA_LAT USA_LON USA_RECORD USA_STATUS USA_WIND USA_PRES USA_SSHS USA_R34_NE USA_R34_SE USA_R34_SW USA_R34_NW USA_R50_NE USA_R50_SE USA_R50_SW USA_R50_NW USA_R64_NE USA_R64_SE USA_R64_SW USA_R64_NW USA_POCI USA_ROCI USA_RMW USA_EYE TOKYO_LAT TOKYO_LON TOKYO_GRADE TOKYO_WIND TOKYO_PRES TOKYO_R50_DIR TOKYO_R50_LONG TOKYO_R50_SHORT TOKYO_R30_DIR TOKYO_R30_LONG TOKYO_R30_SHORT TOKYO_LAND CMA_LAT CMA_LON CMA_CAT CMA_WIND CMA_PRES HKO_LAT HKO_LON HKO_CAT HKO_WIND HKO_PRES NEWDELHI_LAT NEWDELHI_LON NEWDELHI_GRADE NEWDELHI_WIND NEWDELHI_PRES NEWDELHI_CI NEWDELHI_DP NEWDELHI_POCI REUNION_LAT REUNION_LON REUNION_TYPE REUNION_WIND REUNION_PRES REUNION_TNUM REUNION_CI REUNION_RMW REUNION_R34_NE REUNION_R34_SE REUNION_R34_SW REUNION_R34_NW REUNION_R50_NE REUNION_R50_SE REUNION_R50_SW REUNION_R50_NW REUNION_R64_NE REUNION_R64_SE REUNION_R64_SW REUNION_R64_NW BOM_LAT BOM_LON BOM_TYPE BOM_WIND BOM_PRES BOM_TNUM BOM_CI BOM_RMW BOM_R34_NE BOM_R34_SE BOM_R34_SW BOM_R34_NW BOM_R50_NE BOM_R50_SE BOM_R50_SW BOM_R50_NW BOM_R64_NE BOM_R64_SE BOM_R64_SW BOM_R64_NW BOM_ROCI BOM_POCI BOM_EYE BOM_POS_METHOD BOM_PRES_METHOD NADI_LAT NADI_LON NADI_CAT NADI_WIND NADI_PRES WELLINGTON_LAT WELLINGTON_LON WELLINGTON_WIND WELLINGTON_PRES DS824_LAT DS824_LON DS824_STAGE DS824_WIND DS824_PRES TD9636_LAT TD9636_LON TD9636_STAGE TD9636_WIND TD9636_PRES TD9635_LAT TD9635_LON TD9635_WIND TD9635_PRES TD9635_ROCI NEUMANN_LAT NEUMANN_LON NEUMANN_CLASS NEUMANN_WIND NEUMANN_PRES MLC_LAT MLC_LON MLC_CLASS MLC_WIND MLC_PRES USA_GUST BOM_GUST BOM_GUST_PER REUNION_GUST REUNION_GUST_PER USA_SEAHGT USA_SEARAD_NE USA_SEARAD_SE USA_SEARAD_SW USA_SEARAD_NW STORM_SPEED STORM_DIR
1956322S15169 1957 111 SP MM NOT_NAMED 1956-11-17 05:00:00 NR -14.5000 169.000 main 211 199 __________O___ -1 -14.5000 169.000 1 30 23 316
1956322S15169 1957 111 SP MM NOT_NAMED 1956-11-17 06:00:00 TS -14.2307 168.733 main 194 186 O________OP___ jtwc_sh SH061957 -14.2000 168.700 30 -1 -14.3000 168.800 TC 20 1005 -14.2268 168.731 1 30 23 317
1956322S15169 1957 111 SP MM NOT_NAMED 1956-11-17 09:00:00 TS -13.3789 167.917 main 198 198 P________PP___ SH061957 -13.2509 167.813 30 -1 -13.5540 168.070 TC 20 1005 -13.4328 167.953 1 30 22 317
1956322S15169 1957 111 SP MM NOT_NAMED 1956-11-17 12:00:00 TS -12.6592 167.222 main 233 233 O________PP___ jtwc_sh SH061957 -12.5000 167.100 30 -1 -12.8749 167.405 TC 20 1005 -12.7363 167.267 1 30 17 316
1956322S15169 1957 111 SP MM NOT_NAMED 1956-11-17 15:00:00 TS -12.1867 166.740 main 280 280 P________PP___ SH061957 -12.0997 166.681 30 -1 -12.3335 166.862 TC 20 1005 -12.2139 166.736 1 30 11 314
1956322S15169 1957 111 SP MM NOT_NAMED 1956-11-17 17:00:00 TS -12.0240 166.544 main 302 302 P________PO___ SH061957 -12.0061 166.540 30 -1 -12.0837 166.597 TC 20 1005 -12.0000 166.500 1 30 7 308
1956322S15169 1957 111 SP MM NOT_NAMED 1956-11-17 18:00:00 TS -11.9852 166.481 main 302 302 O________OP___ jtwc_sh SH061957 -12.0000 166.500 30 -1 -12.0000 166.500 TC 20 1005 -11.9407 166.423 1 30 2 275
1956322S15169 1957 111 SP MM NOT_NAMED 1956-11-17 21:00:00 TS -12.0107 166.399 main 303 280 P________PP___ SH061957 -12.0974 166.455 32 -1 -11.9190 166.353 TC 20 1005 -11.9288 166.332 1 31 2 194
1956322S15169 1957 111 SP MM NOT_NAMED 1956-11-18 00:00:00 TS -12.1810 166.434 main 280 268 O________PP___ jtwc_sh SH061957 -12.3000 166.500 35 0 -12.0318 166.359 TC 20 1005 -12.0924 166.376 1 32 4 165
1956322S15169 1957 111 SP MM NOT_NAMED 1956-11-18 03:00:00 TS -12.3478 166.490 main 268 246 P________PP___ SH061957 -12.4000 166.530 35 0 -12.2537 166.436 TC 20 1005 -12.3377 166.464 1 34 4 167
1956322S15169 1957 111 SP MM NOT_NAMED 1956-11-18 05:00:00 TS -12.4619 166.508 main 246 246 P________PO___ SH061957 -12.4636 166.523 35 0 -12.4204 166.485 TC 20 1005 -12.5000 166.500 2 35 3 189
1956322S15169 1957 111 SP MM NOT_NAMED 1956-11-18 06:00:00 TS -12.5089 166.488 main 246 236 O________OP___ jtwc_sh SH061957 -12.5000 166.500 35 0 -12.5000 166.500 TC 20 1005 -12.5355 166.453 2 34 4 226
1956322S15169 1957 111 SP MM NOT_NAMED 1956-11-18 09:00:00 TS -12.6388 166.316 main 237 217 P________PP___ SH061957 -12.6426 166.308 32 -1 -12.6306 166.372 TC 22 1004 -12.6395 166.276 2 33 4 232
1956322S15169 1957 111 SP MM NOT_NAMED 1956-11-18 12:00:00 TS -12.7804 166.131 main 219 211 O________PP___ jtwc_sh SH061957 -12.8000 166.100 30 -1 -12.7700 166.226 TC 25 1003 -12.7518 166.099 2 32 4 227
1956322S15169 1957 111 SP MM NOT_NAMED 1956-11-18 15:00:00 TS -12.9205 166.011 main 211 201 P________PP___ SH061957 -12.9349 165.968 30 -1 -12.9243 166.116 TC 27 1002 -12.8880 165.994 2 30 3 206
1956322S15169 1957 111 SP MM NOT_NAMED 1956-11-18 17:00:00 TS -13.0289 166.004 main 201 190 P________PO___ SH061957 -13.0385 165.963 30 -1 -13.0387 166.092 TC 29 1001 -13.0000 166.000 1 30 4 0
1956322S15169 1957 111 SP MM NOT_NAMED 1956-11-18 18:00:00 TS -13.0944 166.039 main 190 160 O________OP___ jtwc_sh SH061957 -13.1000 166.000 30 -1 -13.1000 166.100 TC 30 1001 -13.0778 166.056 1 30 7 136
1956322S15169 1957 111 SP MM NOT_NAMED 1956-11-18 21:00:00 TS -13.3435 166.321 main 160 123 P________PP___ SH061957 -13.3351 166.290 32 -1 -13.3606 166.374 TC 30 1000 -13.3433 166.328 1 33 8 129
1956322S15169 1957 111 SP MM NOT_NAMED 1956-11-19 00:00:00 TS -13.6138 166.705 main 123 99 O________PP___ jtwc_sh SH061957 -13.6000 166.700 35 0 -13.6327 166.727 TC 30 1000 -13.6227 166.694 1 35 9 126
1956322S15169 1957 111 SP MM NOT_NAMED 1956-11-19 03:00:00 TS -13.8738 167.063 main 104 101 P________PP___ SH061957 -13.8801 167.080 37 0 -13.8633 167.015 TC 30 1000 -13.8720 167.075 1 38 8 127
1956322S15169 1957 111 SP MM NOT_NAMED 1956-11-19 05:00:00 TS -14.0118 167.254 main 108 101 P________PO___ SH061957 -14.0395 167.306 39 0 -13.9681 167.103 TC 30 1000 -14.0000 167.300 2 40 6 127
1956322S15169 1957 111 SP MM NOT_NAMED 1956-11-19 06:00:00 TS -14.0566 167.313 main 101 101 O________OP___ jtwc_sh SH061957 -14.1000 167.400 40 0 -14.0000 167.100 TC 30 1000 -14.0482 167.395 2 39 2 133
1956322S15169 1957 111 SP MM NOT_NAMED 1956-11-19 09:00:00 TS -14.1097 167.360 main 105 93 P________PP___ SH061957 -14.1899 167.590 37 0 -14.0052 166.877 TC 30 1000 -14.1340 167.614 2 36 2 272
1956322S15169 1957 111 SP MM NOT_NAMED 1956-11-19 12:00:00 TS -14.0505 167.138 main 86 81 O________PP___ jtwc_sh SH061957 -14.2000 167.700 35 0 -13.8998 166.394 TC 30 1000 -14.1519 167.756 2 34 8 287
1956322S15169 1957 111 SP MM NOT_NAMED 1956-11-19 15:00:00 TS -13.8826 166.584 main 89 89 _________PP___ SH061957 -1 -13.7194 165.739 TC 30 1000 -14.1274 167.850 2 31 12 287
1956322S15169 1957 111 SP MM NOT_NAMED 1956-11-19 17:00:00 TS -13.7501 166.134 main 114 114 _________PO___ SH061957 -1 -13.5752 165.251 TC 30 1000 -14.1000 167.900 1 30 32 284
1956322S15169 1957 111 SP MM NOT_NAMED 1956-11-19 18:00:00 TS -13.5000 165.000 main 217 _________O____ -1 -13.5000 165.000 TC 30 1000 1 68 283

Digital Typhoon Data and Search

About IBTrACS Database

This database is a web-friendly format of International Best Track Archive for Climate Stewardship (IBTrACS), a global best track data archive curated by NOAA dating back to 1842.

Updated: 2021-10-19